Flight Track Log - Related Links

Times and Time Zones

All times are in EST time to prevent confusion due to time zone crossing. See the CES5695 flight status page for this flight to view local times or setup timezone preferences in your user account.

Time Position Orientation Groundspeed Altitude Reporting Facility
EST Latitude Longitude Course Direction KTS MPH feet Rate Location/Type
Tue 12:18:03 AM 40.1320 116.5460 316° Northwest 2,700  Level FlightAware ADS-B
Tue 12:19:19 AM 40.1820 116.4940 322° Northwest 4,700 2,421 Climbing FlightAware ADS-B
Tue 12:19:56 AM 40.2130 116.4590 319° Northwest 6,300 3,095 Climbing FlightAware ADS-B
Tue 12:20:54 AM 40.1910 116.3760 251° West 207 238 9,600 3,109 Climbing FlightAware ADS-B
Tue 12:21:46 AM 40.1570 116.3030 239° Southwest 259 298 12,000 2,779 Climbing FlightAware ADS-B
Tue 12:22:29 AM 40.1290 116.2430 239° Southwest 273 314 14,000 2,359 Climbing FlightAware ADS-B
Tue 12:23:26 AM 40.0900 116.1590 239° Southwest 16,700 2,176 Climbing FlightAware ADS-B
Tue 12:24:11 AM 40.0590 116.0910 239° Southwest 288 331 17,700 1,034 Climbing FlightAware ADS-B
Tue 12:24:24 AM 40.0500 116.0690 242° Southwest 293 337 17,700  Level FlightAware ADS-B
Tue 12:25:12 AM 40.0640 115.9940 284° West 264 304 17,700  Level FlightAware ADS-B
Tue 12:26:09 AM 40.0970 115.9130 298° West 265 305 17,700 719 Level FlightAware ADS-B
Tue 12:27:04 AM 40.1280 115.8360 298° West 18,000 1,091 Climbing FlightAware ADS-B
Tue 12:27:34 AM 40.1410 115.7890 290° West 19,200 1,855 Climbing FlightAware ADS-B
Tue 12:27:59 AM 40.1290 115.7510 248° West 252 290 19,700 600 Climbing FlightAware ADS-B
Tue 12:28:24 AM 40.1010 115.7270 213° Southwest 237 273 19,700  Level FlightAware ADS-B
Tue 12:29:29 AM 40.0240 115.6650 212° Southwest 301 346 19,700 275 Level FlightAware ADS-B
Tue 12:30:13 AM 39.9670 115.6190 212° Southwest 311 358 20,200 1,059 Climbing FlightAware ADS-B
Tue 12:31:20 AM 39.8840 115.5510 212° Southwest 21,900 1,153 Climbing FlightAware ADS-B
Tue 12:33:10 AM 39.7450 115.4300 214° Southwest 329 379 23,600 1,217 Climbing FlightAware ADS-B
Tue 12:33:43 AM 39.7080 115.3800 226° Southwest 333 383 24,800 2,000 Climbing FlightAware ADS-B
Tue 12:34:22 AM 39.6650 115.3190 228° Southwest 352 405 26,000 1,701 Climbing FlightAware ADS-B
Tue 12:34:50 AM 39.6350 115.2770 227° Southwest 348 400 26,700 1,475 Climbing FlightAware ADS-B
Tue 12:35:23 AM 39.5970 115.2240 227° Southwest 355 409 27,500 1,455 Climbing FlightAware ADS-B
Tue 12:36:11 AM 39.5430 115.1490 227° Southwest 27,600 125 Climbing FlightAware ADS-B
Tue 12:40:00 AM 39.4145 115.0773 206° Southwest  Level Estimated
Tue 12:40:58 AM 39.1980 114.7060 205° Southwest 27,600  Level FlightAware ADS-B
Tue 12:41:00 AM 39.3407 115.0319 205° Southwest  Level Estimated
Tue 12:43:00 AM 39.0454 114.6215 203° Southwest  Level Estimated
Tue 12:44:00 AM 38.9703 114.5801 203° Southwest  Level Estimated
Tue 12:45:00 AM 38.8952 114.5388 203° Southwest  Level Estimated
Tue 12:46:00 AM 38.8201 114.4976 203° Southwest  Level Estimated
Tue 12:46:11 AM 38.6560 114.6560 203° Southwest 27,600  Level FlightAware ADS-B
Tue 12:46:20 AM 38.6410 114.6580 174° South 27,600  Level FlightAware ADS-B
Tue 12:48:56 AM 38.3660 114.6890 206° Southwest 27,600  Level FlightAware ADS-B
Tue 12:49:00 AM 38.4447 114.5374 206° Southwest  Level Estimated
Tue 12:49:30 AM 38.3120 114.6950 175° South 27,600  Level FlightAware ADS-B
Tue 12:52:00 AM 38.1319 114.5726 208° Southwest  Level Estimated
Tue 12:53:00 AM 38.0598 114.5238 208° Southwest  Level Estimated
Tue 12:53:22 AM 37.9070 114.7420 208° Southwest 22,000  Level FlightAware ADS-B
Tue 12:53:28 AM 37.8960 114.7440 172° South 21,800 -2,000 Descending FlightAware ADS-B
Tue 12:54:00 AM 37.9877 114.4752 208° Southwest  Level Estimated
Tue 12:57:00 AM 37.6504 114.5523 212° Southwest  Level Estimated
Tue 12:58:00 AM 37.5808 114.4982 212° Southwest  Level Estimated
Tue 12:59:00 AM 37.5113 114.4443 212° Southwest  Level Estimated
Tue 01:00:00 AM 37.4417 114.3905 212° Southwest  Level Estimated
Tue 01:01:00 AM 37.3720 114.3367 212° Southwest  Level Estimated
Tue 01:02:00 AM 37.3023 114.2831 211° Southwest  Level Estimated
Tue 01:03:00 AM 37.2327 114.2296 211° Southwest  Level Estimated
Tue 01:04:00 AM 37.1629 114.1762 211° Southwest  Level Estimated
Tue 01:05:00 AM 37.0932 114.1228 211° Southwest  Level Estimated
Tue 01:06:00 AM 37.0235 114.0696 211° Southwest  Level Estimated
Tue 01:07:00 AM 36.9537 114.0164 211° Southwest  Level Estimated
Tue 01:08:00 AM 36.8839 113.9634 211° Southwest  Level Estimated
Tue 01:09:00 AM 36.8140 113.9105 211° Southwest  Level Estimated
Tue 01:10:00 AM 36.7442 113.8576 211° Southwest  Level Estimated
Tue 01:11:00 AM 36.6743 113.8048 211° Southwest  Level Estimated
Tue 01:12:00 AM 36.6044 113.7522 211° Southwest  Level Estimated
Tue 01:13:00 AM 36.5345 113.6996 211° Southwest  Level Estimated
Tue 01:14:00 AM 36.4646 113.6472 211° Southwest  Level Estimated
Tue 01:15:00 AM 36.4033 113.6013 211° Southwest  Level Estimated
Tue 01:16:00 AM 36.3421 113.5556 211° Southwest  Level Estimated
Tue 01:17:00 AM 36.2808 113.5099 211° Southwest  Level Estimated
Tue 01:18:00 AM 36.2196 113.4643 211° Southwest  Level Estimated
Tue 01:19:00 AM 36.1583 113.4187 211° Southwest  Level Estimated
Tue 01:20:00 AM 36.0970 113.3733 211° Southwest  Level Estimated
Tue 01:21:00 AM 36.0356 113.3279 211° Southwest  Level Estimated
Tue 01:22:00 AM 35.9743 113.2825 211° Southwest  Level Estimated
Tue 01:23:00 AM 35.9129 113.2373 211° Southwest  Level Estimated
Tue 01:24:00 AM 35.8516 113.1921 211° Southwest  Level Estimated
Tue 01:25:00 AM 35.7902 113.1470 211° Southwest  Level Estimated
Tue 01:26:00 AM 35.7288 113.1019 211° Southwest  Level Estimated
Tue 01:27:00 AM 35.6673 113.0569 211° Southwest  Level Estimated
Tue 01:28:00 AM 35.6059 113.0120 211° Southwest  Level Estimated
Tue 01:29:00 AM 35.5444 112.9672 211° Southwest  Level Estimated
Tue 01:30:00 AM 35.4829 112.9224 211° Southwest  Level Estimated
Tue 01:31:00 AM 35.4215 112.8777 211° Southwest  Level Estimated
Tue 01:32:00 AM 35.3600 112.8331 211° Southwest  Level Estimated
Tue 01:33:00 AM 35.2984 112.7885 211° Southwest  Level Estimated
Tue 01:34:00 AM 35.2369 112.7440 211° Southwest  Level Estimated
Tue 01:35:00 AM 35.1753 112.6995 211° Southwest  Level Estimated
Tue 01:36:00 AM 35.1138 112.6552 211° Southwest  Level Estimated
Tue 01:37:00 AM 35.0522 112.6109 210° Southwest  Level Estimated
Tue 01:38:00 AM 34.9906 112.5667 210° Southwest  Level Estimated
Tue 01:39:00 AM 34.9289 112.5225 210° Southwest  Level Estimated
Tue 01:40:00 AM 34.8673 112.4784 210° Southwest  Level Estimated
Tue 01:41:00 AM 34.8056 112.4343 210° Southwest  Level Estimated
Tue 01:42:00 AM 34.7440 112.3904 210° Southwest  Level Estimated
Tue 01:43:00 AM 34.7411 112.3883 210° Southwest  Level Estimated
Tue 01:44:00 AM 34.7411 112.3883 68° East  Level Estimated
Tue 01:45:00 AM 34.7411 112.3883 68° East  Level Estimated
Tue 01:46:00 AM 34.7411 112.3883 68° East  Level Estimated
Tue 01:47:00 AM 34.7411 112.3883 68° East  Level Estimated
Tue 01:48:00 AM 34.7411 112.3883 68° East  Level Estimated
Tue 01:49:00 AM 34.7411 112.3883 68° East  Level Estimated
Tue 01:50:00 AM 34.7411 112.3883 68° East  Level Estimated

Login

Don't have an account? Register now (free) for customized features, flight alerts, and more!